Time;durP1;ratioP1;P1;durP2;ratioP2;P2;SDS_P1;SDS_P2;PMS_P1;PMS_P2;Temp;Humidity;BMP_temperature;BMP_pressure;BME280_temperature;BME280_humidity;BME280_pressure;Samples;Min_cycle;Max_cycle;Signal;HPM_P1;HPM_P2
2022/03/17 00:00:07;;;;;;;;;;;15.30;78.60;;;;;;5290864;28;20011;-35
2022/03/17 00:02:58;;;;;;;;;;;15.20;78.50;;;;;;5291121;28;19923;-37
2022/03/17 00:05:30;;;;;;;;;;;15.20;78.60;;;;;;5290635;28;19927;-33
2022/03/17 00:08:00;;;;;;;;;;;15.20;78.60;;;;;;5256880;28;19926;-29
2022/03/17 00:10:33;;;;;;;;;;;15.20;78.70;;;;;;5290597;28;19924;-31
2022/03/17 00:13:03;;;;;;;;;;;15.20;78.80;;;;;;5290658;28;20440;-30
2022/03/17 00:15:34;;;;;;;;;;;15.20;79.40;;;;;;5290565;28;20484;-32
2022/03/17 00:18:06;;;;;;;;;;;15.20;78.90;;;;;;5290578;28;19919;-31
2022/03/17 00:20:37;;;;;;;;;;;15.20;79.00;;;;;;5273475;28;20017;-31
2022/03/17 00:23:09;;;;;;;;;;;15.20;79.00;;;;;;5290549;28;20353;-32
2022/03/17 00:25:40;;;;;;;;;;;15.20;79.10;;;;;;5290436;28;19970;-36
2022/03/17 00:28:11;;;;;;;;;;;15.20;79.20;;;;;;5290776;28;20357;-31
2022/03/17 00:30:42;;;;;;;;;;;15.20;79.10;;;;;;5290998;28;19947;-35
2022/03/17 00:33:13;;;;;;;;;;;15.20;79.20;;;;;;5292499;28;19962;-30
2022/03/17 00:35:44;;;;;;;;;;;15.10;79.10;;;;;;5292435;28;19953;-30
2022/03/17 00:38:16;;;;;;;;;;;15.10;79.20;;;;;;5292369;28;20012;-32
2022/03/17 00:40:47;;;;;;;;;;;15.10;79.10;;;;;;5292202;28;20008;-30
2022/03/17 00:43:17;;;;;;;;;;;15.10;79.80;;;;;;5291853;28;19980;-35
2022/03/17 00:45:48;;;;;;;;;;;15.10;79.30;;;;;;5292387;28;19927;-39
2022/03/17 00:48:19;;;;;;;;;;;15.10;79.40;;;;;;5291992;28;19920;-30
2022/03/17 00:50:50;;;;;;;;;;;15.00;79.30;;;;;;5291787;28;19920;-33
2022/03/17 00:53:21;;;;;;;;;;;15.10;79.60;;;;;;5291594;28;19927;-30
2022/03/17 00:55:52;;;;;;;;;;;15.00;79.60;;;;;;5292286;28;19919;-30
2022/03/17 00:58:23;;;;;;;;;;;15.00;79.60;;;;;;5292209;28;19955;-32
2022/03/17 01:00:54;;;;;;;;;;;15.00;79.70;;;;;;5292029;28;19920;-31
2022/03/17 01:03:25;;;;;;;;;;;15.00;79.80;;;;;;5291795;28;20373;-37
2022/03/17 01:05:59;;;;;;;;;;;15.00;79.80;;;;;;5290866;28;19954;-30
2022/03/17 01:08:30;;;;;;;;;;;15.00;79.80;;;;;;5291685;28;19920;-30
2022/03/17 01:11:01;;;;;;;;;;;15.00;79.70;;;;;;5292048;28;20316;-33
2022/03/17 01:13:31;;;;;;;;;;;14.90;79.50;;;;;;5291678;28;19963;-31
2022/03/17 01:16:02;;;;;;;;;;;14.90;79.50;;;;;;5291521;28;19964;-30
2022/03/17 01:18:33;;;;;;;;;;;15.00;79.40;;;;;;5291118;28;19966;-30
2022/03/17 01:21:06;;;;;;;;;;;15.00;79.50;;;;;;5291568;28;19930;-32
2022/03/17 01:23:37;;;;;;;;;;;14.90;79.50;;;;;;5291703;28;19924;-29
2022/03/17 01:26:08;;;;;;;;;;;14.90;79.70;;;;;;5291374;28;20011;-35
2022/03/17 01:28:40;;;;;;;;;;;14.90;79.90;;;;;;5291632;28;19920;-31
2022/03/17 01:31:11;;;;;;;;;;;14.90;80.10;;;;;;5291465;28;20375;-31
2022/03/17 01:33:42;;;;;;;;;;;14.90;79.80;;;;;;5291551;28;19919;-36
2022/03/17 01:36:13;;;;;;;;;;;14.80;79.40;;;;;;5291361;28;19926;-32
2022/03/17 01:38:44;;;;;;;;;;;14.80;79.40;;;;;;5291304;28;19984;-31
2022/03/17 01:41:15;;;;;;;;;;;14.80;79.40;;;;;;5291809;28;19968;-29
2022/03/17 01:43:46;;;;;;;;;;;14.80;79.30;;;;;;5291864;28;20234;-35
2022/03/17 01:46:18;;;;;;;;;;;14.80;79.20;;;;;;5291112;28;19932;-30
2022/03/17 01:48:49;;;;;;;;;;;14.80;79.30;;;;;;5291035;28;19959;-30
2022/03/17 01:51:20;;;;;;;;;;;14.80;79.10;;;;;;5291028;28;19926;-35
2022/03/17 01:53:50;;;;;;;;;;;14.80;79.00;;;;;;5290552;28;20273;-32
2022/03/17 01:56:21;;;;;;;;;;;14.80;78.90;;;;;;5291081;28;19964;-30
2022/03/17 01:58:52;;;;;;;;;;;14.80;78.80;;;;;;5291102;28;19920;-33
2022/03/17 02:01:24;;;;;;;;;;;14.80;78.90;;;;;;5290932;28;19924;-30
2022/03/17 02:03:56;;;;;;;;;;;14.80;78.70;;;;;;5290945;28;19920;-36
2022/03/17 02:06:27;;;;;;;;;;;14.70;78.70;;;;;;5291054;28;19965;-36
2022/03/17 02:08:58;;;;;;;;;;;14.70;78.70;;;;;;5290963;28;20394;-31
2022/03/17 02:14:22;;;;;;;;;;;14.70;78.90;;;;;;5290987;28;19920;-31
2022/03/17 02:16:53;;;;;;;;;;;14.70;78.90;;;;;;5290921;28;19920;-36
2022/03/17 02:19:24;;;;;;;;;;;14.70;79.10;;;;;;5290901;28;20369;-30
2022/03/17 02:21:55;;;;;;;;;;;14.70;79.10;;;;;;5290915;28;19920;-30
2022/03/17 02:27:16;;;;;;;;;;;14.70;79.10;;;;;;5291323;28;19968;-31
2022/03/17 02:29:49;;;;;;;;;;;14.70;79.00;;;;;;5291066;28;19954;-30
2022/03/17 02:32:20;;;;;;;;;;;14.70;79.00;;;;;;5294208;28;19927;-35
2022/03/17 02:34:51;;;;;;;;;;;14.70;78.80;;;;;;5294796;27;19919;-30
2022/03/17 02:37:24;;;;;;;;;;;14.70;78.70;;;;;;5295085;28;19919;-30
2022/03/17 02:39:54;;;;;;;;;;;14.70;78.70;;;;;;5293584;28;19931;-35
2022/03/17 02:42:26;;;;;;;;;;;14.70;78.80;;;;;;5294666;28;19920;-36
2022/03/17 02:44:58;;;;;;;;;;;14.70;78.70;;;;;;5294739;28;19980;-33
2022/03/17 02:47:29;;;;;;;;;;;14.60;78.70;;;;;;5294566;28;20368;-31
2022/03/17 02:49:59;;;;;;;;;;;14.70;78.60;;;;;;5294674;28;20008;-34
2022/03/17 02:52:30;;;;;;;;;;;14.60;78.80;;;;;;5293471;28;20319;-30
2022/03/17 02:55:02;;;;;;;;;;;14.70;78.80;;;;;;5294220;28;19919;-32
2022/03/17 02:57:32;;;;;;;;;;;14.70;78.80;;;;;;5293447;28;19971;-31
2022/03/17 03:00:05;;;;;;;;;;;14.70;78.70;;;;;;5293954;28;19961;-34
2022/03/17 03:02:36;;;;;;;;;;;14.70;78.70;;;;;;5294053;28;19919;-32
2022/03/17 03:05:07;;;;;;;;;;;14.60;78.70;;;;;;5294542;28;20033;-29
2022/03/17 03:07:38;;;;;;;;;;;14.60;78.70;;;;;;5294178;28;19942;-33
2022/03/17 03:10:09;;;;;;;;;;;14.60;78.60;;;;;;5293022;28;19919;-36
2022/03/17 03:12:40;;;;;;;;;;;14.60;78.70;;;;;;5293902;28;19927;-37
2022/03/17 03:15:11;;;;;;;;;;;14.60;78.70;;;;;;5294411;28;20285;-37
2022/03/17 03:17:42;;;;;;;;;;;14.60;78.80;;;;;;5292881;28;20032;-30
2022/03/17 03:20:15;;;;;;;;;;;14.60;78.80;;;;;;5293983;28;19927;-34
2022/03/17 03:22:46;;;;;;;;;;;14.60;78.70;;;;;;5293999;28;19919;-32
2022/03/17 03:25:17;;;;;;;;;;;14.60;78.80;;;;;;5283431;28;19924;-31
2022/03/17 03:27:48;;;;;;;;;;;14.60;78.30;;;;;;5290595;28;19968;-30
2022/03/17 03:30:20;;;;;;;;;;;14.60;75.10;;;;;;5293465;28;19924;-33
2022/03/17 03:32:51;;;;;;;;;;;14.60;74.70;;;;;;5293632;28;19920;-31
2022/03/17 03:38:23;;;;;;;;;;;14.50;74.30;;;;;;5249296;28;19920;-33
2022/03/17 03:40:53;;;;;;;;;;;14.50;74.20;;;;;;5249634;28;19920;-31
2022/03/17 03:43:24;;;;;;;;;;;14.50;74.10;;;;;;5248808;28;19978;-30
2022/03/17 03:45:55;;;;;;;;;;;14.50;74.00;;;;;;5248469;28;19956;-31
2022/03/17 03:48:26;;;;;;;;;;;14.50;73.90;;;;;;5248817;28;19924;-35
2022/03/17 03:50:57;;;;;;;;;;;14.50;73.80;;;;;;5232276;28;19920;-36
2022/03/17 03:54:12;;;;;;;;;;;14.60;73.60;;;;;;5248709;28;19920;-33
2022/03/17 03:56:19;;;;;;;;;;;14.60;73.40;;;;;;5174433;28;19920;-31
2022/03/17 03:58:53;;;;;;;;;;;14.60;73.30;;;;;;5248998;28;19966;-31
2022/03/17 04:01:27;;;;;;;;;;;14.70;73.20;;;;;;5248818;28;19931;-32
2022/03/17 04:03:58;;;;;;;;;;;14.70;73.00;;;;;;5248780;28;19920;-35
2022/03/17 04:06:31;;;;;;;;;;;14.70;72.80;;;;;;5249128;28;19921;-35
2022/03/17 04:09:03;;;;;;;;;;;14.70;72.60;;;;;;5248612;28;19974;-30
2022/03/17 04:11:34;;;;;;;;;;;14.70;72.60;;;;;;5232184;28;20324;-29
2022/03/17 04:14:05;;;;;;;;;;;14.70;72.40;;;;;;5259705;28;19924;-30
2022/03/17 04:16:36;;;;;;;;;;;14.70;72.10;;;;;;5292917;28;20361;-31
2022/03/17 04:19:09;;;;;;;;;;;14.80;72.00;;;;;;5292560;28;19919;-35
2022/03/17 04:21:40;;;;;;;;;;;14.80;71.90;;;;;;5292718;28;19942;-34
2022/03/17 04:24:11;;;;;;;;;;;14.80;71.90;;;;;;5290613;28;19985;-31
2022/03/17 04:26:41;;;;;;;;;;;14.80;72.00;;;;;;5292250;28;19989;-30
2022/03/17 04:29:13;;;;;;;;;;;14.80;72.30;;;;;;5292519;28;19927;-30
2022/03/17 04:31:43;;;;;;;;;;;14.90;72.80;;;;;;5292385;28;20280;-36
2022/03/17 04:34:15;;;;;;;;;;;14.90;73.20;;;;;;5292485;28;20365;-35
2022/03/17 04:36:45;;;;;;;;;;;14.90;73.60;;;;;;5292380;28;20011;-31
2022/03/17 04:39:16;;;;;;;;;;;14.90;74.40;;;;;;5292248;28;19927;-31
2022/03/17 04:41:48;;;;;;;;;;;14.90;86.00;;;;;;5292366;28;20272;-29
2022/03/17 04:44:19;;;;;;;;;;;15.00;85.80;;;;;;5290021;28;20385;-30
2022/03/17 04:46:50;;;;;;;;;;;15.00;74.90;;;;;;5273114;28;19945;-30
2022/03/17 04:49:21;;;;;;;;;;;15.00;73.60;;;;;;5291916;28;19931;-30
2022/03/17 04:52:01;;;;;;;;;;;15.00;73.30;;;;;;5291930;28;19920;-32
2022/03/17 04:54:32;;;;;;;;;;;14.90;73.10;;;;;;5290960;28;20254;-30
2022/03/17 04:57:04;;;;;;;;;;;14.90;73.00;;;;;;5291836;28;19926;-30
2022/03/17 04:59:35;;;;;;;;;;;14.90;73.00;;;;;;5291830;28;19931;-36
2022/03/17 05:02:06;;;;;;;;;;;14.90;72.90;;;;;;5291421;28;19919;-31
2022/03/17 05:04:39;;;;;;;;;;;14.90;72.70;;;;;;5291390;28;20395;-30
2022/03/17 05:07:11;;;;;;;;;;;14.90;72.70;;;;;;5291617;28;19959;-32
2022/03/17 05:09:42;;;;;;;;;;;14.90;72.70;;;;;;5290310;28;20439;-30
2022/03/17 05:12:12;;;;;;;;;;;15.00;72.80;;;;;;5291441;28;19920;-40
2022/03/17 05:14:46;;;;;;;;;;;15.00;73.00;;;;;;5291008;28;20002;-29
2022/03/17 05:17:17;;;;;;;;;;;15.00;73.50;;;;;;5290514;28;20007;-33
2022/03/17 05:19:50;;;;;;;;;;;15.00;74.00;;;;;;5289992;28;20585;-30
2022/03/17 05:22:21;;;;;;;;;;;15.10;74.80;;;;;;5291190;28;20027;-37
2022/03/17 05:24:52;;;;;;;;;;;15.00;75.10;;;;;;5291209;28;19919;-35
2022/03/17 05:27:25;;;;;;;;;;;15.10;75.60;;;;;;5291525;28;20014;-30
2022/03/17 05:30:03;;;;;;;;;;;15.00;75.90;;;;;;5291356;28;20357;-37
2022/03/17 05:32:34;;;;;;;;;;;15.10;76.20;;;;;;5291985;28;20357;-34
2022/03/17 05:35:06;;;;;;;;;;;15.10;76.30;;;;;;5290382;28;20010;-33
2022/03/17 05:37:37;;;;;;;;;;;15.00;76.30;;;;;;5273124;28;19931;-31
2022/03/17 05:40:13;;;;;;;;;;;15.00;76.50;;;;;;5291129;28;19923;-30
2022/03/17 05:42:48;;;;;;;;;;;15.00;76.40;;;;;;5291242;28;19920;-39
2022/03/17 05:45:22;;;;;;;;;;;15.00;76.50;;;;;;5291853;28;19927;-32
2022/03/17 05:47:57;;;;;;;;;;;14.90;76.70;;;;;;5291282;28;19919;-30
2022/03/17 05:50:29;;;;;;;;;;;15.00;77.00;;;;;;5290877;28;20022;-30
2022/03/17 05:53:04;;;;;;;;;;;14.90;77.00;;;;;;5291125;28;19919;-33
2022/03/17 05:56:04;;;;;;;;;;;14.90;77.10;;;;;;5223084;28;19975;-31
2022/03/17 05:58:47;;;;;;;;;;;14.90;77.30;;;;;;5209581;28;19932;-38
2022/03/17 06:01:21;;;;;;;;;;;14.90;77.00;;;;;;5226166;28;20111;-32
2022/03/17 06:03:56;;;;;;;;;;;14.90;77.30;;;;;;5226016;28;19920;-30
2022/03/17 06:06:27;;;;;;;;;;;14.90;77.90;;;;;;5229750;28;20388;-38
2022/03/17 06:09:01;;;;;;;;;;;14.90;78.10;;;;;;5217859;28;19955;-34
2022/03/17 06:11:32;;;;;;;;;;;14.90;78.60;;;;;;5209626;28;19925;-35
2022/03/17 06:14:03;;;;;;;;;;;14.90;77.10;;;;;;5249891;28;19973;-35
2022/03/17 06:16:48;;;;;;;;;;;14.90;83.80;;;;;;5274804;28;19927;-28
2022/03/17 06:19:19;;;;;;;;;;;14.90;83.90;;;;;;5273997;28;20376;-37
2022/03/17 06:21:50;;;;;;;;;;;15.00;83.10;;;;;;5273932;28;19965;-32
2022/03/17 06:24:21;;;;;;;;;;;14.90;82.40;;;;;;5273901;28;19955;-33
2022/03/17 06:26:52;;;;;;;;;;;15.00;79.90;;;;;;5274010;28;19927;-32
2022/03/17 06:29:23;;;;;;;;;;;15.00;79.10;;;;;;5274030;28;19920;-34
2022/03/17 06:31:54;;;;;;;;;;;15.00;78.60;;;;;;5273928;28;19951;-32
2022/03/17 06:34:25;;;;;;;;;;;15.00;90.20;;;;;;5272618;28;19959;-31
2022/03/17 06:37:00;;;;;;;;;;;15.10;91.40;;;;;;5273673;28;20372;-30
2022/03/17 06:39:30;;;;;;;;;;;15.20;92.10;;;;;;5273842;28;19926;-36
2022/03/17 06:42:01;;;;;;;;;;;15.40;92.70;;;;;;5273776;28;19920;-30
2022/03/17 06:44:34;;;;;;;;;;;15.60;93.20;;;;;;5273623;28;20392;-32
2022/03/17 06:47:05;;;;;;;;;;;15.70;93.20;;;;;;5273356;28;19924;-30
2022/03/17 06:49:36;;;;;;;;;;;15.80;93.20;;;;;;5273055;28;19966;-31
2022/03/17 06:52:07;;;;;;;;;;;15.90;92.40;;;;;;5273462;28;19920;-34
2022/03/17 06:54:38;;;;;;;;;;;15.90;92.50;;;;;;5273212;28;19920;-30
2022/03/17 06:57:09;;;;;;;;;;;16.00;93.80;;;;;;5273474;28;20374;-31
2022/03/17 06:59:39;;;;;;;;;;;16.00;92.70;;;;;;5273022;28;19919;-32
2022/03/17 07:02:10;;;;;;;;;;;16.00;90.80;;;;;;5273302;28;19919;-31
2022/03/17 07:04:42;;;;;;;;;;;16.10;90.00;;;;;;5273551;28;19920;-29
2022/03/17 07:07:13;;;;;;;;;;;16.10;88.50;;;;;;5273497;28;19943;-30
2022/03/17 07:09:46;;;;;;;;;;;16.10;87.00;;;;;;5271852;28;20344;-31
2022/03/17 07:12:17;;;;;;;;;;;16.10;85.80;;;;;;5272919;28;19954;-31
2022/03/17 07:14:48;;;;;;;;;;;16.00;85.00;;;;;;5278284;28;19959;-35
2022/03/17 07:17:20;;;;;;;;;;;16.00;85.70;;;;;;5279558;28;20384;-30
2022/03/17 07:19:58;;;;;;;;;;;16.00;84.50;;;;;;5278438;28;19924;-29
2022/03/17 07:22:31;;;;;;;;;;;16.00;84.70;;;;;;5277233;28;20033;-30
2022/03/17 07:25:03;;;;;;;;;;;16.00;85.50;;;;;;5277317;28;19965;-35
2022/03/17 07:27:41;;;;;;;;;;;15.90;85.50;;;;;;5281699;28;19919;-32
2022/03/17 07:30:14;;;;;;;;;;;15.90;83.90;;;;;;5277348;28;19982;-31
2022/03/17 07:32:46;;;;;;;;;;;15.90;85.90;;;;;;5279363;28;20408;-29
2022/03/17 07:35:16;;;;;;;;;;;15.90;84.60;;;;;;5271581;28;19977;-30
2022/03/17 07:37:47;;;;;;;;;;;15.70;79.60;;;;;;5278876;28;19984;-34
2022/03/17 07:40:19;;;;;;;;;;;14.60;80.00;;;;;;5280469;28;19927;-36
2022/03/17 07:42:50;;;;;;;;;;;13.80;81.60;;;;;;5265328;28;20400;-30
2022/03/17 07:45:20;;;;;;;;;;;13.30;82.80;;;;;;5280626;28;19924;-36
2022/03/17 07:47:51;;;;;;;;;;;13.00;84.60;;;;;;5276578;28;19965;-31
2022/03/17 07:50:22;;;;;;;;;;;12.80;84.50;;;;;;5280912;28;20246;-39
2022/03/17 07:52:55;;;;;;;;;;;12.70;84.30;;;;;;5276159;28;19951;-35
2022/03/17 07:55:27;;;;;;;;;;;12.60;84.90;;;;;;5284345;28;19954;-36
2022/03/17 07:57:58;;;;;;;;;;;12.50;85.00;;;;;;5264729;28;20361;-32
2022/03/17 08:00:30;;;;;;;;;;;12.50;85.80;;;;;;5272059;28;20262;-34
2022/03/17 08:03:02;;;;;;;;;;;12.50;85.00;;;;;;5280996;28;19977;-27
2022/03/17 08:05:33;;;;;;;;;;;12.40;85.80;;;;;;5279884;28;19965;-31
2022/03/17 08:08:04;;;;;;;;;;;12.30;85.00;;;;;;5279046;28;19920;-32
2022/03/17 08:10:35;;;;;;;;;;;12.30;85.20;;;;;;5274209;28;19935;-31
2022/03/17 08:13:09;;;;;;;;;;;12.30;85.90;;;;;;5276370;28;19920;-31
2022/03/17 08:15:40;;;;;;;;;;;12.20;85.50;;;;;;5262326;28;19923;-29
2022/03/17 08:18:11;;;;;;;;;;;12.20;85.10;;;;;;5279449;28;19920;-29
2022/03/17 08:20:42;;;;;;;;;;;12.10;85.60;;;;;;5276518;28;19920;-29
2022/03/17 08:23:19;;;;;;;;;;;12.10;85.70;;;;;;5278938;28;19924;-31
2022/03/17 08:25:50;;;;;;;;;;;12.10;86.70;;;;;;5275986;28;19927;-30
2022/03/17 08:28:21;;;;;;;;;;;12.20;86.80;;;;;;5279782;28;19946;-33
2022/03/17 08:30:52;;;;;;;;;;;12.20;85.70;;;;;;5275874;28;20348;-31
2022/03/17 08:33:23;;;;;;;;;;;12.20;85.90;;;;;;5278992;28;19931;-31
2022/03/17 08:35:54;;;;;;;;;;;12.30;86.60;;;;;;5275293;28;19927;-30
2022/03/17 08:38:25;;;;;;;;;;;12.30;86.40;;;;;;5278042;28;19928;-32
2022/03/17 08:40:56;;;;;;;;;;;12.40;86.20;;;;;;5279870;28;19971;-33
2022/03/17 08:43:28;;;;;;;;;;;12.30;86.10;;;;;;5272212;28;20042;-29
2022/03/17 08:51:38;;;;;;;;;;;12.30;85.30;;;;;;5275084;28;19927;-28
2022/03/17 08:54:11;;;;;;;;;;;12.20;85.80;;;;;;5263798;28;19920;-30
2022/03/17 08:56:42;;;;;;;;;;;12.30;86.20;;;;;;5276538;28;19945;-32
2022/03/17 08:59:17;;;;;;;;;;;12.20;86.30;;;;;;5281325;28;20403;-34
2022/03/17 09:01:48;;;;;;;;;;;12.20;86.00;;;;;;5271382;28;19920;-32
2022/03/17 09:04:19;;;;;;;;;;;12.20;86.00;;;;;;5275750;28;19924;-42
2022/03/17 09:06:50;;;;;;;;;;;12.10;85.60;;;;;;5269392;28;19928;-34
2022/03/17 09:09:21;;;;;;;;;;;12.10;85.70;;;;;;5276798;28;19930;-33
2022/03/17 09:11:52;;;;;;;;;;;12.00;86.10;;;;;;5280081;28;20290;-31
2022/03/17 09:14:23;;;;;;;;;;;11.90;85.90;;;;;;5278606;28;20002;-31
2022/03/17 09:16:54;;;;;;;;;;;11.90;85.60;;;;;;5256528;28;19966;-33
2022/03/17 09:19:25;;;;;;;;;;;11.90;86.50;;;;;;5249519;28;20848;-30
2022/03/17 09:21:57;;;;;;;;;;;11.90;87.10;;;;;;5280970;28;19947;-30
2022/03/17 09:24:30;;;;;;;;;;;11.90;87.30;;;;;;5277940;28;19929;-36
2022/03/17 09:27:03;;;;;;;;;;;11.90;87.60;;;;;;5277176;28;20026;-36
2022/03/17 09:29:38;;;;;;;;;;;11.90;87.60;;;;;;5277295;28;20120;-34
2022/03/17 09:32:14;;;;;;;;;;;11.80;87.70;;;;;;5275549;28;20389;-30
2022/03/17 09:34:45;;;;;;;;;;;11.80;87.20;;;;;;5274470;28;19970;-30
2022/03/17 09:37:17;;;;;;;;;;;11.80;84.20;;;;;;5277568;28;19969;-30
2022/03/17 09:39:49;;;;;;;;;;;11.90;85.70;;;;;;5280880;28;19949;-31
2022/03/17 09:42:20;;;;;;;;;;;11.90;84.70;;;;;;5281235;28;19924;-29
2022/03/17 09:44:53;;;;;;;;;;;11.90;86.10;;;;;;5276116;28;20010;-30
2022/03/17 09:47:28;;;;;;;;;;;11.90;85.10;;;;;;5279406;28;19919;-30
2022/03/17 09:50:00;;;;;;;;;;;11.90;83.60;;;;;;5273731;28;19931;-30
2022/03/17 09:52:32;;;;;;;;;;;11.90;83.40;;;;;;5278510;28;19931;-32
2022/03/17 09:55:04;;;;;;;;;;;11.90;83.70;;;;;;5278766;28;19926;-30
2022/03/17 09:57:37;;;;;;;;;;;11.90;83.50;;;;;;5278834;28;21521;-31
2022/03/17 10:00:11;;;;;;;;;;;11.90;83.40;;;;;;5276237;28;19928;-30
2022/03/17 10:02:41;;;;;;;;;;;11.90;83.50;;;;;;5276468;28;19927;-30
2022/03/17 10:05:12;;;;;;;;;;;11.90;82.80;;;;;;5272116;28;19928;-31
2022/03/17 10:07:47;;;;;;;;;;;11.90;82.70;;;;;;5275122;28;19977;-30
2022/03/17 10:10:20;;;;;;;;;;;11.90;82.60;;;;;;5278668;28;20036;-30
2022/03/17 10:13:08;;;;;;;;;;;11.90;81.70;;;;;;5279689;28;20396;-31
2022/03/17 10:15:39;;;;;;;;;;;11.90;82.40;;;;;;5272319;28;20397;-30
2022/03/17 10:18:19;;;;;;;;;;;12.00;82.50;;;;;;5272755;28;19959;-30
2022/03/17 10:21:11;;;;;;;37.57;33.53;;;12.00;82.00;;;;;;5279632;28;19924;-31
2022/03/17 10:23:50;;;;;;;40.53;33.47;;;12.00;82.80;;;;;;5271716;28;20047;-30
2022/03/17 10:26:39;;;;;;;;;;;12.00;81.70;;;;;;5270924;28;20088;-30
2022/03/17 10:29:11;;;;;;;;;;;12.30;81.20;;;;;;5278112;28;19920;-30
2022/03/17 10:31:55;;;;;;;;;;;12.60;80.40;;;;;;5276831;28;19926;-31
2022/03/17 10:34:28;;;;;;;;;;;12.90;79.90;;;;;;5272916;28;20277;-30
2022/03/17 10:37:09;;;;;;;;;;;13.20;79.60;;;;;;5274258;28;20460;-30
2022/03/17 10:39:44;;;;;;;;;;;13.40;79.40;;;;;;5282789;28;19998;-31
2022/03/17 10:42:16;;;;;;;;;;;13.60;79.50;;;;;;5290792;28;19931;-28
2022/03/17 10:44:51;;;;;;;;;;;13.80;79.10;;;;;;5290459;28;19924;-31
2022/03/17 10:47:26;;;;;;;;;;;14.10;78.50;;;;;;5291227;28;19920;-30
2022/03/17 10:50:18;;;;;;;;;;;14.20;78.20;;;;;;5290253;28;19926;-34
2022/03/17 10:52:55;;;;;;;;;;;14.30;77.40;;;;;;5292559;28;19920;-36
2022/03/17 10:55:26;;;;;;;;;;;14.50;80.60;;;;;;5294932;28;19972;-30
2022/03/17 10:58:14;;;;;;;;;;;14.70;78.80;;;;;;5294556;28;19926;-30
2022/03/17 11:00:48;;;;;;;;;;;14.80;77.60;;;;;;5293255;28;20464;-30
2022/03/17 11:03:23;;;;;;;;;;;15.00;76.50;;;;;;5294272;28;19926;-34
2022/03/17 11:05:54;;;;;;;;;;;15.10;81.00;;;;;;5294066;28;19924;-30
2022/03/17 11:08:25;;;;;;;;;;;15.10;79.10;;;;;;5294534;28;19940;-37
2022/03/17 11:10:57;;;;;;;;;;;15.10;79.00;;;;;;5294368;28;19972;-34
2022/03/17 11:13:31;;;;;;;;;;;15.20;76.10;;;;;;5294075;28;19972;-29
2022/03/17 11:16:04;;;;;;;;;;;15.30;76.30;;;;;;5294355;28;19920;-35
2022/03/17 11:18:39;;;;;;;;;;;15.30;77.70;;;;;;5292741;28;19931;-31
2022/03/17 11:21:16;;;;;;;;;;;15.40;75.90;;;;;;5294083;28;19919;-29
2022/03/17 11:23:55;;;;;;;;;;;15.40;77.80;;;;;;5294069;28;19919;-30
2022/03/17 11:26:29;;;;;;;;;;;15.50;80.20;;;;;;5293944;27;20048;-33
2022/03/17 11:29:04;;;;;;;;;;;15.50;78.20;;;;;;5293648;28;19920;-31
2022/03/17 11:31:54;;;;;;;;;;;15.50;81.90;;;;;;5293091;28;20361;-30
2022/03/17 11:34:37;;;;;;;;;;;15.50;91.70;;;;;;5293803;28;19919;-30
2022/03/17 11:37:15;;;;;;;;;;;15.50;90.00;;;;;;5293460;28;19920;-40
2022/03/17 11:40:05;;;;;;;;;;;15.60;90.20;;;;;;5292445;28;19920;-37
2022/03/17 11:42:36;;;;;;;;;;;15.70;89.40;;;;;;5293423;28;19919;-38
2022/03/17 11:45:08;;;;;;;;;;;15.80;95.60;;;;;;5293473;27;20280;-33
2022/03/17 11:47:58;;;;;;;;;;;15.80;91.50;;;;;;5293238;28;19920;-30
2022/03/17 11:50:32;;;;;;;;;;;15.80;92.20;;;;;;5293145;27;19919;-34
2022/03/17 11:53:07;;;;;;;;;;;15.80;89.20;;;;;;5293273;28;19964;-32
2022/03/17 11:55:41;;;;;;;;;;;15.90;81.10;;;;;;5292441;28;20360;-30
2022/03/17 11:58:16;;;;;;;;;;;15.90;83.50;;;;;;5293400;28;20018;-36
2022/03/17 12:00:47;;;;;;;;;;;15.90;80.90;;;;;;5292929;28;19920;-31
2022/03/17 12:03:27;;;;;;;;;;;16.00;77.30;;;;;;5292940;28;19927;-30
2022/03/17 12:06:07;;;;;;;;;;;16.00;84.10;;;;;;5274880;28;19920;-29
2022/03/17 12:08:41;;;;;;;;;;;16.00;84.00;;;;;;5291853;28;19926;-31
2022/03/17 12:11:13;;;;;;;;;;;16.00;82.50;;;;;;5293069;27;19919;-30
2022/03/17 12:14:04;;;;;;;;;;;16.00;82.60;;;;;;5291811;28;20373;-34
2022/03/17 12:16:40;;;;;;;;;;;15.90;77.20;;;;;;5293117;28;19919;-31
2022/03/17 12:19:22;;;;;;;;;;;15.90;83.50;;;;;;5231719;28;20278;-35
2022/03/17 12:22:03;;;;;;;;;;;15.90;88.00;;;;;;5248818;28;19985;-30
2022/03/17 12:24:40;;;;;;;;;;;15.90;77.20;;;;;;5249094;28;20354;-34
2022/03/17 12:27:29;;;;;;;;;;;15.80;76.60;;;;;;5248247;28;19924;-35
2022/03/17 12:30:00;;;;;;;;;;;15.90;77.50;;;;;;5248349;28;19928;-30
2022/03/17 12:32:34;;;;;;;;;;;15.90;80.40;;;;;;5248256;28;19924;-30
2022/03/17 12:35:12;;;;;;;;;;;15.90;82.50;;;;;;5231550;28;19928;-29
2022/03/17 12:37:43;;;;;;;;;;;15.80;76.90;;;;;;5248179;28;20384;-34
2022/03/17 12:40:15;;;;;;;;;;;15.90;78.60;;;;;;5248130;28;19990;-37
2022/03/17 12:42:47;;;;;;;;;;;15.80;82.20;;;;;;5248037;28;19920;-37
2022/03/17 12:45:19;;;;;;;;;;;15.80;79.60;;;;;;5231455;28;20431;-37
2022/03/17 12:47:56;;;;;;;;;;;15.80;82.70;;;;;;5248325;28;19924;-30
2022/03/17 12:50:27;;;;;;;;;;;15.80;83.10;;;;;;5267846;28;19919;-37
2022/03/17 12:52:59;;;;;;;;;;;15.80;78.90;;;;;;5292131;28;20336;-36
2022/03/17 12:55:30;;;;;;;;;;;15.80;79.90;;;;;;5292132;28;19999;-31
2022/03/17 12:58:02;;;;;;;;;;;15.70;84.00;;;;;;5291684;28;19927;-33
2022/03/17 13:00:33;;;;;;;19.47;17.47;;;15.30;73.40;;;;;;5291651;28;19920;-30
2022/03/17 13:03:05;;;;;;;;;;;14.30;72.90;;;;;;5257499;28;20052;-34
2022/03/17 13:08:26;;;;;;;;;;;13.30;74.80;;;;;;5290935;28;19919;-31
2022/03/17 13:16:40;;;;;;;;;;;12.90;76.50;;;;;;5291639;28;19973;-29
2022/03/17 13:19:11;;;;;;;;;;;12.80;76.30;;;;;;5290881;28;20263;-32
2022/03/17 13:21:44;;;;;;;;;;;12.80;77.00;;;;;;5291674;28;19919;-30
2022/03/17 13:24:20;;;;;;;;;;;12.80;75.70;;;;;;5291460;28;19926;-30
2022/03/17 13:27:03;;;;;;;22.75;18.25;;;12.90;76.40;;;;;;5291395;28;20363;-32
2022/03/17 13:29:37;;;;;;;20.90;17.57;;;13.30;78.40;;;;;;5291202;28;20043;-30
2022/03/17 13:32:15;;;;;;;;;;;13.60;75.50;;;;;;5273779;28;20043;-30
2022/03/17 13:34:56;;;;;;;;;;;13.90;74.90;;;;;;5291655;28;19920;-33
2022/03/17 13:37:34;;;;;;;;;;;14.10;74.50;;;;;;5291413;28;19919;-31
2022/03/17 13:40:08;;;;;;;;;;;14.20;74.20;;;;;;5291314;28;20292;-34
2022/03/17 13:42:58;;;;;;;;;;;14.40;74.20;;;;;;5291871;28;19919;-32
2022/03/17 13:45:31;;;;;;;;;;;14.50;74.30;;;;;;5291829;28;20001;-30
2022/03/17 13:48:05;;;;;;;;;;;14.60;74.00;;;;;;5291129;28;19924;-34
2022/03/17 13:50:39;;;;;;;;;;;14.70;73.80;;;;;;5289543;28;19927;-30
2022/03/17 13:53:10;;;;;;;;;;;14.40;73.10;;;;;;5289636;28;19980;-30
2022/03/17 13:55:42;;;;;;;;;;;13.70;73.70;;;;;;5291304;28;19923;-37
2022/03/17 13:58:31;;;;;;;;;;;13.30;73.80;;;;;;5291037;28;19980;-34
2022/03/17 14:01:20;;;;;;;;;;;13.10;74.90;;;;;;5290829;28;19927;-35
2022/03/17 14:03:52;;;;;;;;;;;12.90;75.10;;;;;;5291193;28;20369;-34
2022/03/17 14:06:23;;;;;;;;;;;12.80;75.50;;;;;;5291272;28;19920;-32
2022/03/17 14:08:55;;;;;;;;;;;12.80;75.20;;;;;;5289361;28;20014;-37
2022/03/17 14:11:31;;;;;;;;;;;12.70;75.70;;;;;;5291501;28;19923;-34
2022/03/17 14:14:02;;;;;;;;;;;12.70;74.80;;;;;;5290651;28;19919;-29
2022/03/17 14:16:34;;;;;;;;;;;12.70;75.60;;;;;;5291519;28;20326;-36
2022/03/17 14:19:05;;;;;;;;;;;12.70;75.40;;;;;;5290777;28;20311;-32
2022/03/17 14:24:10;;;;;;;;;;;12.70;74.90;;;;;;5290428;28;19923;-35
2022/03/17 14:24:31;;;;;;;;;;;12.80;76.00;;;;;;5267265;28;19927;-32
2022/03/17 14:27:02;;;;;;;;;;;12.70;74.80;;;;;;5270424;28;19920;-35
2022/03/17 14:29:33;;;;;;;;;;;12.70;76.30;;;;;;5271014;28;19989;-36
2022/03/17 14:32:05;;;;;;;;;;;12.70;75.40;;;;;;5270848;28;20367;-36
2022/03/17 14:34:36;;;;;;;;;;;12.70;76.30;;;;;;5242688;28;20031;-35
2022/03/17 14:37:08;;;;;;;;;;;12.70;76.20;;;;;;5259839;28;19919;-32
2022/03/17 14:39:43;;;;;;;;;;;12.60;77.10;;;;;;5260692;28;19920;-43
2022/03/17 14:42:15;;;;;;;;;;;12.60;76.10;;;;;;5260593;28;19945;-38
2022/03/17 14:44:46;;;;;;;;;;;12.60;76.20;;;;;;5260165;28;20331;-34
2022/03/17 14:47:18;;;;;;;;;;;12.50;75.70;;;;;;5259205;28;20385;-35
2022/03/17 14:49:51;;;;;;;;;;;12.50;76.40;;;;;;5243889;28;19920;-31
2022/03/17 14:52:23;;;;;;;;;;;12.50;76.70;;;;;;5250165;28;19952;-38
2022/03/17 14:54:54;;;;;;;;;;;12.50;75.80;;;;;;5256482;28;19927;-33
2022/03/17 14:57:25;;;;;;;;;;;12.50;76.70;;;;;;5273802;28;20300;-29
2022/03/17 14:59:58;;;;;;;;;;;12.50;76.10;;;;;;5273509;28;20325;-32
2022/03/17 15:02:30;;;;;;;;;;;12.50;76.90;;;;;;5273117;28;20081;-35
2022/03/17 15:05:01;;;;;;;;;;;12.60;76.00;;;;;;5272408;28;19920;-34
2022/03/17 15:07:32;;;;;;;;;;;12.60;76.60;;;;;;5272984;28;19923;-34
2022/03/17 15:10:08;;;;;;;;;;;12.80;76.80;;;;;;5273149;28;20014;-30
2022/03/17 15:12:40;;;;;;;;;;;12.80;77.40;;;;;;5272169;28;19945;-28